Francisco de Sa Carneiro Airport Porto PT
ICAO: LPPR
IATA: OPO
Category: Large
Scheduled Services: Yes

Elevation: 228 ft
TransAlt. 4000 ft.

Airport Communications:
APP:121.1
ATIS:124.3
TWR:118

LPPR Zoom In..

Runways:

(A) RW 17 length 11417 ft width 148 ft
ILS 109.90 / hdg 173

(B) RW 35 length 11417 ft width 148 ft
---- / hdg 353

Location; LPPR
Day. 20 / Time. 11.00 Zulu
* QNH: 1014
* Temperature: 17° c. 62.6°f.
* Wind from: 220° Speed 10 kn.
Dewpoint: 15° c.
Visibility: 9000 m.
Clouds: Broken 600 ft.

LPPR 201100Z 22010KT 180V240 9000 BKN006 17/15 Q1014


Wind From 220°
Speed 10 kn.

 
 
jpsmedia.com for Web Design SOUNDCLOUD worldairports.se 2018   terms of use